createdAt,value
2023-04-30T00:00:59.021Z,100479.66
2023-04-30T00:03:47.590Z,100490.00
2023-04-30T00:06:36.090Z,100485.88
2023-04-30T00:09:24.703Z,100495.19
2023-04-30T00:12:13.185Z,100490.41
2023-04-30T00:15:03.030Z,100487.09
2023-04-30T00:17:51.667Z,100500.53
2023-04-30T00:20:40.218Z,100499.28
2023-04-30T00:23:28.789Z,100501.97
2023-04-30T00:26:17.266Z,100501.19
2023-04-30T00:29:07.065Z,100518.53
2023-04-30T00:31:56.929Z,100506.13
2023-04-30T00:34:46.003Z,100514.00
2023-04-30T00:37:34.549Z,100509.00
2023-04-30T00:40:23.075Z,100514.59
2023-04-30T00:43:11.573Z,100502.56
2023-04-30T00:46:00.196Z,100507.53
2023-04-30T00:48:50.267Z,100467.81
2023-04-30T00:51:41.603Z,100509.41
2023-04-30T00:54:30.146Z,100502.81
2023-04-30T00:57:18.826Z,100481.06
2023-04-30T01:00:09.570Z,100500.09
2023-04-30T01:02:58.362Z,100425.53
2023-04-30T01:05:48.240Z,100494.28
2023-04-30T01:08:36.872Z,100491.59
2023-04-30T01:11:32.950Z,100452.59
2023-04-30T01:14:27.576Z,100479.16
2023-04-30T01:17:19.735Z,100499.84
2023-04-30T01:20:09.554Z,100484.34
2023-04-30T01:23:13.429Z,100492.63
2023-04-30T01:26:12.701Z,100492.44
2023-04-30T01:29:04.257Z,100477.56
2023-04-30T01:31:53.028Z,100491.38
2023-04-30T01:34:41.719Z,100477.75
2023-04-30T01:37:34.792Z,100487.06
2023-04-30T01:40:25.878Z,100490.16
2023-04-30T01:43:21.938Z,100446.50
2023-04-30T01:46:17.938Z,100473.19
2023-04-30T01:49:12.876Z,100488.72
2023-04-30T01:52:12.515Z,100477.16
2023-04-30T01:55:02.493Z,100486.41
2023-04-30T01:57:57.763Z,100478.56
2023-04-30T02:00:46.390Z,100474.03
2023-04-30T02:03:36.285Z,100470.69
2023-04-30T02:06:28.263Z,100483.13
2023-04-30T02:09:16.929Z,100482.28
2023-04-30T02:12:05.749Z,100480.44
2023-04-30T02:14:54.249Z,100480.63
2023-04-30T02:17:42.823Z,100481.25
2023-04-30T02:20:32.747Z,100480.44
2023-04-30T02:23:21.335Z,100477.31
2023-04-30T02:26:09.865Z,100465.31
2023-04-30T02:28:58.320Z,100480.22
2023-04-30T02:31:46.862Z,100470.31
2023-04-30T02:34:35.478Z,100485.63
2023-04-30T02:37:25.501Z,100479.84
2023-04-30T02:40:14.157Z,100483.75
2023-04-30T02:43:02.621Z,100480.47
2023-04-30T02:45:51.208Z,100490.81
2023-04-30T02:48:39.802Z,100482.31
2023-04-30T02:51:28.294Z,100480.88
2023-04-30T02:54:18.091Z,100482.50
2023-04-30T02:57:06.879Z,100482.94
2023-04-30T02:59:55.612Z,100482.50
2023-04-30T03:02:44.523Z,100484.16
2023-04-30T03:05:33.049Z,100475.28
2023-04-30T03:08:21.550Z,100464.53
2023-04-30T03:11:11.334Z,100477.78
2023-04-30T03:13:59.808Z,100478.19
2023-04-30T03:16:48.457Z,100471.34
2023-04-30T03:19:37.180Z,100483.75
2023-04-30T03:22:26.725Z,100471.56
2023-04-30T03:25:15.443Z,100479.22
2023-04-30T03:28:05.675Z,100468.06
2023-04-30T03:30:54.173Z,100472.41
2023-04-30T03:33:42.681Z,100462.47
2023-04-30T03:36:31.291Z,100469.69
2023-04-30T03:39:19.775Z,100465.75
2023-04-30T03:42:08.282Z,100464.53
2023-04-30T03:44:58.222Z,100465.34
2023-04-30T03:47:47.001Z,100463.72
2023-04-30T03:50:35.672Z,100471.16
2023-04-30T03:53:25.788Z,100463.72
2023-04-30T03:56:14.435Z,100470.78
2023-04-30T03:59:03.057Z,100465.34
2023-04-30T04:01:52.976Z,100466.81
2023-04-30T04:04:41.457Z,100471.56
2023-04-30T04:07:29.914Z,100477.56
2023-04-30T04:10:18.368Z,100475.91
2023-04-30T04:13:06.845Z,100448.31
2023-04-30T04:15:55.327Z,100480.63
2023-04-30T04:18:45.431Z,100483.56
2023-04-30T04:21:33.874Z,100483.56
2023-04-30T04:24:22.333Z,100479.19
2023-04-30T04:27:10.804Z,100486.00
2023-04-30T04:29:59.254Z,100489.97
2023-04-30T04:32:49.391Z,100490.81
2023-04-30T04:35:39.304Z,100480.47
2023-04-30T04:38:27.766Z,100496.59
2023-04-30T04:41:16.575Z,100485.22
2023-04-30T04:44:05.699Z,100491.00
2023-04-30T04:46:56.642Z,100495.56
2023-04-30T04:49:45.237Z,100492.66
2023-04-30T04:52:35.057Z,100497.59
2023-04-30T04:55:23.525Z,100499.91
2023-04-30T04:58:12.014Z,100497.81
2023-04-30T05:01:01.323Z,100501.34
2023-04-30T05:03:49.969Z,100501.75
2023-04-30T05:06:38.614Z,100497.19
2023-04-30T05:09:28.514Z,100510.22
2023-04-30T05:12:17.003Z,100517.88
2023-04-30T05:15:06.593Z,100495.34
2023-04-30T05:17:55.170Z,100507.78
2023-04-30T05:20:43.756Z,100470.53
2023-04-30T05:23:32.280Z,100504.50
2023-04-30T05:26:24.426Z,100490.19
2023-04-30T05:29:13.343Z,100502.38
2023-04-30T05:32:02.992Z,100461.84
2023-04-30T05:34:51.610Z,100493.53
2023-04-30T05:37:40.141Z,100501.78
2023-04-30T05:40:29.139Z,100502.63
2023-04-30T05:43:18.934Z,100507.19
2023-04-30T05:46:07.474Z,100505.09
2023-04-30T05:48:55.957Z,100505.97
2023-04-30T05:51:44.445Z,100497.47
2023-04-30T05:54:33.266Z,100488.13
2023-04-30T05:57:21.824Z,100496.03
2023-04-30T06:00:13.525Z,100508.88
2023-04-30T06:03:02.006Z,100513.41
2023-04-30T06:05:50.636Z,100505.53
2023-04-30T06:08:42.421Z,100519.00
2023-04-30T06:11:30.947Z,100512.13
2023-04-30T06:14:20.111Z,100517.72
2023-04-30T06:17:09.957Z,100515.03
2023-04-30T06:20:00.754Z,100503.44
2023-04-30T06:22:49.295Z,100513.53
2023-04-30T06:25:37.844Z,100519.50
2023-04-30T06:28:26.508Z,100508.16
2023-04-30T06:31:15.176Z,100524.13
2023-04-30T06:34:05.027Z,100513.78
2023-04-30T06:36:53.543Z,100507.94
2023-04-30T06:39:42.036Z,100516.19
2023-04-30T06:42:34.283Z,100522.63
2023-04-30T06:45:22.852Z,100523.50
2023-04-30T06:48:11.327Z,100512.75
2023-04-30T06:51:01.157Z,100516.69
2023-04-30T06:53:49.569Z,100517.94
2023-04-30T06:56:37.991Z,100515.25
2023-04-30T06:59:26.434Z,100518.44
2023-04-30T07:02:14.993Z,100525.75
2023-04-30T07:05:03.940Z,100516.56
2023-04-30T07:07:53.782Z,100520.03
2023-04-30T07:10:42.291Z,100521.25
2023-04-30T07:13:30.713Z,100525.50
2023-04-30T07:16:19.219Z,100522.53
2023-04-30T07:19:07.733Z,100521.31
2023-04-30T07:21:56.188Z,100529.56
2023-04-30T07:24:46.012Z,100522.97
2023-04-30T07:27:34.530Z,100433.03
2023-04-30T07:30:25.035Z,100517.06
2023-04-30T07:33:14.221Z,100521.63
2023-04-30T07:36:02.713Z,100483.28
2023-04-30T07:38:51.438Z,100507.97
2023-04-30T07:41:41.346Z,100511.75
2023-04-30T07:44:29.932Z,100516.19
2023-04-30T07:47:19.935Z,100507.56
2023-04-30T07:50:09.149Z,100509.44
2023-04-30T07:52:57.634Z,100516.66
2023-04-30T07:55:46.430Z,100496.47
2023-04-30T07:58:36.303Z,100499.88
2023-04-30T08:01:24.840Z,100508.44
2023-04-30T08:04:13.354Z,100517.72
2023-04-30T08:07:02.720Z,100512.31
2023-04-30T08:09:51.693Z,100508.22
2023-04-30T08:12:40.769Z,100513.88
2023-04-30T08:15:30.824Z,100514.91
2023-04-30T08:18:19.258Z,100517.34
2023-04-30T08:21:07.927Z,100517.44
2023-04-30T08:23:57.178Z,100514.94
2023-04-30T08:26:45.653Z,100516.56
2023-04-30T08:29:34.223Z,100516.63
2023-04-30T08:32:24.184Z,100524.34
2023-04-30T08:35:12.791Z,100520.06
2023-04-30T08:38:01.228Z,100520.41
2023-04-30T08:40:54.045Z,100524.88
2023-04-30T08:43:45.163Z,100527.44
2023-04-30T08:46:35.651Z,100527.75
2023-04-30T08:49:26.254Z,100526.69
2023-04-30T08:52:15.785Z,100514.78
2023-04-30T08:55:08.755Z,100521.13
2023-04-30T08:57:57.207Z,100513.94
2023-04-30T09:00:45.852Z,100514.38
2023-04-30T09:03:34.457Z,100520.06
2023-04-30T09:06:24.391Z,100522.25
2023-04-30T09:09:13.932Z,100425.34
2023-04-30T09:12:18.381Z,100512.22
2023-04-30T09:15:09.075Z,100509.03
2023-04-30T09:18:08.505Z,100503.91
2023-04-30T09:20:58.709Z,100493.72
2023-04-30T09:23:58.453Z,100502.13
2023-04-30T09:26:48.244Z,100505.31
2023-04-30T09:29:38.280Z,100511.06
2023-04-30T09:32:27.246Z,100520.78
2023-04-30T09:35:30.777Z,100463.59
2023-04-30T09:38:27.556Z,100512.69
2023-04-30T09:41:24.922Z,100507.97
2023-04-30T09:44:28.332Z,100512.47
2023-04-30T09:47:18.179Z,100492.66
2023-04-30T09:50:07.766Z,100517.72
2023-04-30T09:53:06.664Z,100484.78
2023-04-30T09:55:56.784Z,100514.09
2023-04-30T09:58:52.110Z,100521.50
2023-04-30T10:01:41.148Z,100506.44
2023-04-30T10:04:32.002Z,100504.09
2023-04-30T10:07:22.697Z,100516.72
2023-04-30T10:10:11.992Z,100484.09
2023-04-30T10:13:07.150Z,100507.28
2023-04-30T10:16:00.389Z,100504.25
2023-04-30T10:18:51.758Z,100507.28
2023-04-30T10:21:41.558Z,100508.81
2023-04-30T10:24:30.134Z,100510.81
2023-04-30T10:27:19.251Z,100507.28
2023-04-30T10:30:09.947Z,100510.09
2023-04-30T10:33:06.549Z,100492.41
2023-04-30T10:35:59.495Z,100491.03
2023-04-30T10:38:48.611Z,100461.47
2023-04-30T10:41:37.107Z,100490.09
2023-04-30T10:44:26.916Z,100489.13
2023-04-30T10:47:15.462Z,100479.81
2023-04-30T10:50:06.418Z,100485.38
2023-04-30T10:53:04.133Z,100486.22
2023-04-30T10:55:54.854Z,100479.50
2023-04-30T10:58:44.060Z,100473.94
2023-04-30T11:01:32.725Z,100473.00
2023-04-30T11:04:21.342Z,100475.25
2023-04-30T11:07:11.678Z,100466.19
2023-04-30T11:10:01.954Z,100468.41
2023-04-30T11:12:52.038Z,100464.06
2023-04-30T11:15:42.219Z,100466.78
2023-04-30T11:18:31.124Z,100463.22
2023-04-30T11:21:21.707Z,100466.13
2023-04-30T11:24:11.511Z,100460.13
2023-04-30T11:27:05.407Z,100459.75
2023-04-30T11:29:54.964Z,100443.38
2023-04-30T11:32:46.310Z,100446.69
2023-04-30T11:35:34.989Z,100457.38
2023-04-30T11:38:27.664Z,100451.56
2023-04-30T11:41:17.453Z,100447.25
2023-04-30T11:44:23.473Z,100449.72
2023-04-30T11:47:12.218Z,100435.19
2023-04-30T11:50:00.702Z,100435.88
2023-04-30T11:52:53.693Z,100431.91
2023-04-30T11:55:42.698Z,100439.72
2023-04-30T11:58:37.968Z,100435.69
2023-04-30T12:01:28.481Z,100438.16
2023-04-30T12:04:17.112Z,100429.19
2023-04-30T12:07:08.959Z,100427.16
2023-04-30T12:09:57.736Z,100423.97
2023-04-30T12:12:46.567Z,100427.41
2023-04-30T12:15:37.133Z,100418.78
2023-04-30T12:18:25.829Z,100424.41
2023-04-30T12:21:14.693Z,100433.34
2023-04-30T12:24:03.674Z,100428.00
2023-04-30T12:26:54.685Z,100420.75
2023-04-30T12:29:46.434Z,100425.38
2023-04-30T12:32:41.193Z,100413.22
2023-04-30T12:35:32.491Z,100412.22
2023-04-30T12:38:23.326Z,100414.25
2023-04-30T12:41:15.156Z,100416.00
2023-04-30T12:44:17.672Z,100395.16
2023-04-30T12:47:10.179Z,100407.84
2023-04-30T12:50:00.068Z,100413.78
2023-04-30T12:52:48.709Z,100416.63
2023-04-30T12:55:37.846Z,100406.38
2023-04-30T12:58:31.726Z,100402.00
2023-04-30T13:01:21.553Z,100393.19
2023-04-30T13:04:10.141Z,100389.91
2023-04-30T13:07:00.232Z,100389.72
2023-04-30T13:09:48.693Z,100391.53
2023-04-30T13:12:37.196Z,100393.78
2023-04-30T13:15:25.686Z,100390.63
2023-04-30T13:18:15.818Z,100389.13
2023-04-30T13:21:04.553Z,100389.88
2023-04-30T13:23:55.750Z,100375.69
2023-04-30T13:26:45.997Z,100378.25
2023-04-30T13:29:34.486Z,100384.34
2023-04-30T13:32:23.024Z,100382.19
2023-04-30T13:35:11.749Z,100384.91
2023-04-30T13:38:00.541Z,100390.84
2023-04-30T13:40:50.471Z,100374.16
2023-04-30T13:43:42.483Z,100362.53
2023-04-30T13:46:31.400Z,100351.13
2023-04-30T13:49:19.956Z,100362.19
2023-04-30T13:52:08.470Z,100359.09
2023-04-30T13:54:57.313Z,100354.72
2023-04-30T13:57:47.208Z,100355.41
2023-04-30T14:00:35.834Z,100348.78
2023-04-30T14:03:24.626Z,100341.97
2023-04-30T14:06:13.301Z,100351.66
2023-04-30T14:09:02.050Z,100346.47
2023-04-30T14:11:51.185Z,100339.69
2023-04-30T14:14:41.143Z,100333.91
2023-04-30T14:17:30.292Z,100331.03
2023-04-30T14:20:18.806Z,100350.84
2023-04-30T14:23:07.228Z,100343.13
2023-04-30T14:25:56.475Z,100342.63
2023-04-30T14:28:44.970Z,100336.28
2023-04-30T14:31:34.835Z,100335.03
2023-04-30T14:34:24.441Z,100324.69
2023-04-30T14:37:14.010Z,100327.78
2023-04-30T14:40:03.088Z,100314.28
2023-04-30T14:42:51.737Z,100312.69
2023-04-30T14:45:40.867Z,100313.56
2023-04-30T14:48:30.854Z,100317.78
2023-04-30T14:51:19.282Z,100213.88
2023-04-30T14:54:07.784Z,100297.41
2023-04-30T14:56:56.416Z,100301.72
2023-04-30T14:59:45.014Z,100310.81
2023-04-30T15:02:33.594Z,100294.28
2023-04-30T15:05:23.570Z,100302.56
2023-04-30T15:08:11.990Z,100307.47
2023-04-30T15:11:00.737Z,100291.47
2023-04-30T15:13:49.195Z,100295.06
2023-04-30T15:16:37.703Z,100299.91
2023-04-30T15:19:26.284Z,100281.25
2023-04-30T15:22:16.277Z,100295.41
2023-04-30T15:25:05.289Z,100290.72
2023-04-30T15:27:53.827Z,100283.19
2023-04-30T15:30:42.583Z,100282.38
2023-04-30T15:33:31.425Z,100274.16
2023-04-30T15:36:22.304Z,100276.38
2023-04-30T15:39:12.180Z,100279.91
2023-04-30T15:42:00.625Z,100270.03
2023-04-30T15:44:49.080Z,100275.88
2023-04-30T15:47:37.756Z,100257.72
2023-04-30T15:50:26.257Z,100224.19
2023-04-30T15:53:15.111Z,100252.31
2023-04-30T15:56:05.522Z,100248.28
2023-04-30T15:58:54.688Z,100247.19
2023-04-30T16:01:43.677Z,100253.31
2023-04-30T16:04:32.333Z,100260.41
2023-04-30T16:07:20.934Z,100249.09
2023-04-30T16:10:10.956Z,100217.25
2023-04-30T16:13:00.825Z,100221.88
2023-04-30T16:15:50.092Z,100253.00
2023-04-30T16:18:38.584Z,100249.47
2023-04-30T16:21:27.275Z,100238.38
2023-04-30T16:24:16.228Z,100229.63
2023-04-30T16:27:05.047Z,100224.59
2023-04-30T16:29:55.427Z,100201.28
2023-04-30T16:32:44.533Z,100225.59
2023-04-30T16:35:33.458Z,100225.91
2023-04-30T16:38:22.371Z,100229.13
2023-04-30T16:41:12.129Z,100213.09
2023-04-30T16:44:00.720Z,100208.25
2023-04-30T16:46:50.666Z,100213.13
2023-04-30T16:49:39.728Z,100201.38
2023-04-30T16:52:29.627Z,100208.50
2023-04-30T16:55:18.371Z,100214.53
2023-04-30T16:58:07.105Z,100201.13
2023-04-30T17:00:56.803Z,100137.34
2023-04-30T17:03:47.370Z,100198.06
2023-04-30T17:06:36.769Z,100170.25
2023-04-30T17:09:25.424Z,100196.28
2023-04-30T17:12:13.947Z,100204.22
2023-04-30T17:15:02.470Z,100200.00
2023-04-30T17:17:50.983Z,100196.06
2023-04-30T17:20:40.910Z,100193.97
2023-04-30T17:23:29.504Z,100198.16
2023-04-30T17:26:21.447Z,100200.28
2023-04-30T17:29:09.944Z,100197.19
2023-04-30T17:31:58.474Z,100201.16
2023-04-30T17:34:47.156Z,100200.16
2023-04-30T17:37:36.964Z,100181.78
2023-04-30T17:40:25.473Z,100198.91
2023-04-30T17:43:14.033Z,100201.63
2023-04-30T17:46:03.421Z,100184.63
2023-04-30T17:48:51.965Z,100206.66
2023-04-30T17:51:40.452Z,100208.16
2023-04-30T17:54:31.408Z,100216.38
2023-04-30T17:57:19.940Z,100208.63
2023-04-30T18:00:09.659Z,100211.50
2023-04-30T18:02:58.187Z,100201.53
2023-04-30T18:05:46.787Z,100210.97
2023-04-30T18:08:35.348Z,100216.78
2023-04-30T18:11:25.266Z,100218.59
2023-04-30T18:14:14.121Z,100204.03
2023-04-30T18:17:02.965Z,100165.63
2023-04-30T18:19:51.414Z,100215.81
2023-04-30T18:22:43.334Z,100220.22
2023-04-30T18:25:34.139Z,100212.47
2023-04-30T18:28:24.674Z,100177.13
2023-04-30T18:31:13.276Z,100210.03
2023-04-30T18:34:01.859Z,100207.25
2023-04-30T18:36:50.408Z,100206.47
2023-04-30T18:39:38.896Z,100203.19
2023-04-30T18:42:27.397Z,100202.94
2023-04-30T18:45:17.903Z,100204.34
2023-04-30T18:48:07.823Z,100212.00
2023-04-30T18:50:56.368Z,100202.22
2023-04-30T18:53:47.104Z,100204.22
2023-04-30T18:56:36.840Z,100209.22
2023-04-30T18:59:27.397Z,100209.09
2023-04-30T19:02:17.558Z,100206.22
2023-04-30T19:05:07.397Z,100212.28
2023-04-30T19:07:55.855Z,100217.44
2023-04-30T19:10:44.482Z,100212.13
2023-04-30T19:13:33.400Z,100203.50
2023-04-30T19:16:21.955Z,100212.16
2023-04-30T19:19:11.987Z,100213.75
2023-04-30T19:22:01.168Z,100208.44
2023-04-30T19:24:49.627Z,100212.25
2023-04-30T19:27:38.224Z,100211.97
2023-04-30T19:30:26.771Z,100220.28
2023-04-30T19:33:15.434Z,100221.59
2023-04-30T19:36:05.994Z,100225.28
2023-04-30T19:38:54.612Z,100224.75
2023-04-30T19:41:43.087Z,100229.56
2023-04-30T19:44:31.547Z,100217.44
2023-04-30T19:47:20.107Z,100220.81
2023-04-30T19:50:10.020Z,100219.66
2023-04-30T19:52:59.822Z,100219.69
2023-04-30T19:55:48.487Z,100213.56
2023-04-30T19:58:37.101Z,100221.03
2023-04-30T20:01:25.609Z,100224.63
2023-04-30T20:04:14.229Z,100225.72
2023-04-30T20:07:02.954Z,100224.53
2023-04-30T20:09:53.118Z,100219.63
2023-04-30T20:12:41.860Z,100228.97
2023-04-30T20:15:30.691Z,100224.03
2023-04-30T20:18:19.217Z,100224.47
2023-04-30T20:21:09.951Z,100224.09
2023-04-30T20:24:00.230Z,100205.75
2023-04-30T20:26:51.338Z,100216.94
2023-04-30T20:29:41.547Z,100206.19
2023-04-30T20:32:30.031Z,100213.28
2023-04-30T20:35:19.188Z,100217.44
2023-04-30T20:38:07.768Z,100215.00
2023-04-30T20:40:56.384Z,100212.56
2023-04-30T20:43:46.290Z,100213.81
2023-04-30T20:46:36.161Z,100210.13
2023-04-30T20:49:26.925Z,100204.34
2023-04-30T20:52:15.779Z,100170.13
2023-04-30T20:55:04.624Z,100199.59
2023-04-30T20:57:53.317Z,100204.34
2023-04-30T21:00:43.316Z,100210.72
2023-04-30T21:03:32.083Z,100201.84
2023-04-30T21:06:20.699Z,100209.91
2023-04-30T21:09:10.631Z,100194.00
2023-04-30T21:11:59.539Z,100202.50
2023-04-30T21:14:48.080Z,100204.19
2023-04-30T21:17:38.004Z,100203.81
2023-04-30T21:20:26.637Z,100200.91
2023-04-30T21:23:15.597Z,100204.00
2023-04-30T21:26:04.130Z,100192.03
2023-04-30T21:28:52.758Z,100182.56
2023-04-30T21:31:41.401Z,100132.75
2023-04-30T21:34:32.772Z,100170.00
2023-04-30T21:37:21.522Z,100199.09
2023-04-30T21:40:11.013Z,100181.53
2023-04-30T21:42:59.566Z,100178.25
2023-04-30T21:45:48.190Z,100176.19
2023-04-30T21:48:38.372Z,100114.25
2023-04-30T21:51:28.218Z,100189.19
2023-04-30T21:54:19.064Z,100182.38
2023-04-30T21:57:07.525Z,100182.78
2023-04-30T21:59:56.253Z,100182.78
2023-04-30T22:02:45.076Z,100160.94
2023-04-30T22:05:33.614Z,100178.44
2023-04-30T22:08:23.568Z,100178.66
2023-04-30T22:11:12.386Z,100168.16
2023-04-30T22:14:01.143Z,100168.56
2023-04-30T22:16:49.757Z,100167.94
2023-04-30T22:19:38.445Z,100161.34
2023-04-30T22:22:27.065Z,100133.25
2023-04-30T22:25:17.661Z,100158.84
2023-04-30T22:28:06.240Z,100155.13
2023-04-30T22:30:59.608Z,100170.63
2023-04-30T22:33:48.079Z,100159.28
2023-04-30T22:36:36.944Z,100139.44
2023-04-30T22:39:25.432Z,100152.44
2023-04-30T22:42:15.518Z,100150.81
2023-04-30T22:45:04.336Z,100136.72
2023-04-30T22:47:53.498Z,100146.25
2023-04-30T22:50:42.031Z,100145.41
2023-04-30T22:53:30.555Z,100143.94
2023-04-30T22:56:19.063Z,100141.28
2023-04-30T22:59:08.928Z,100139.81
2023-04-30T23:01:57.596Z,100049.97
2023-04-30T23:04:46.093Z,100143.47
2023-04-30T23:07:34.675Z,100138.34
2023-04-30T23:10:23.129Z,100121.63
2023-04-30T23:13:11.813Z,100143.72
2023-04-30T23:16:05.347Z,100109.03
2023-04-30T23:18:54.015Z,100136.28
2023-04-30T23:21:42.508Z,100139.22
2023-04-30T23:24:35.111Z,100134.84
2023-04-30T23:27:23.697Z,100138.34
2023-04-30T23:30:12.631Z,100130.94
2023-04-30T23:33:02.613Z,100118.53
2023-04-30T23:35:52.698Z,100126.81
2023-04-30T23:38:42.798Z,100126.41
2023-04-30T23:41:31.522Z,100122.44
2023-04-30T23:44:20.482Z,100122.06
2023-04-30T23:47:09.301Z,100111.13
2023-04-30T23:49:59.097Z,100106.56
2023-04-30T23:52:47.720Z,100075.19
2023-04-30T23:55:36.308Z,100105.34
2023-04-30T23:58:24.903Z,100097.88
